Reidsville, North Carolina
Current Conditions -  °F | °C
As of 1:55 AM on Friday 19 Dec 2014 (Local Time) from KSIF Reporting Station
Overcast Overcast  
Wind Chill: 37°   Ceiling: 7000
Heat Index: 37°   Visibility: 10mi
Dew Point: 31°   Wind: 0mph
Humidity: 81%   Direction: NA
Pressure: 30.1"   Gusts: NA
Location:  36.36°N, 79.66°W
Report Text: KSIF 190655Z AUTO 00000KT 10SM OVC070 03/00 A3010 RMK AO2 T00271003
Loading
Personal Weather Stations






























Interactive Weather Map New forecast layout! Learn more

10-Day Weather Forecast

Advertisements
Track Severe Weather on mobile